createdAt,value
2023-04-05T00:00:35.352Z,30.15
2023-04-05T00:03:17.888Z,43.40
2023-04-05T00:05:49.999Z,36.60
2023-04-05T00:10:52.404Z,30.95
2023-04-05T00:13:20.980Z,40.33
2023-04-05T00:15:49.712Z,36.83
2023-04-05T00:18:23.756Z,33.30
2023-04-05T00:20:53.658Z,32.28
2023-04-05T00:23:22.801Z,35.92
2023-04-05T00:25:51.056Z,30.60
2023-04-05T00:28:19.572Z,31.55
2023-04-05T00:30:47.739Z,27.27
2023-04-05T00:33:16.171Z,29.48
2023-04-05T00:35:44.299Z,29.30
2023-04-05T00:38:14.070Z,26.50
2023-04-05T00:40:42.604Z,25.73
2023-04-05T00:43:11.144Z,25.27
2023-04-05T00:45:39.241Z,26.00
2023-04-05T00:48:07.769Z,22.10
2023-04-05T00:50:36.131Z,27.77
2023-04-05T00:53:04.804Z,33.45
2023-04-05T00:55:34.935Z,25.20
2023-04-05T00:58:03.448Z,26.27
2023-04-05T01:00:31.870Z,22.60
2023-04-05T01:03:02.216Z,29.20
2023-04-05T01:05:37.483Z,21.77
2023-04-05T01:08:13.440Z,29.20
2023-04-05T01:10:47.133Z,36.95
2023-04-05T01:13:17.473Z,26.13
2023-04-05T01:15:45.712Z,26.10
2023-04-05T01:18:14.446Z,23.65
2023-04-05T01:20:53.671Z,28.35
2023-04-05T01:23:39.174Z,33.30
2023-04-05T01:26:43.331Z,28.45
2023-04-05T01:30:04.301Z,27.55
2023-04-05T01:32:44.021Z,30.55
2023-04-05T01:35:20.701Z,31.58
2023-04-05T01:37:53.784Z,28.75
2023-04-05T01:40:22.437Z,28.07
2023-04-05T01:42:50.661Z,30.98
2023-04-05T01:45:19.084Z,29.17
2023-04-05T01:47:48.720Z,26.73
2023-04-05T01:50:17.264Z,33.47
2023-04-05T01:52:45.360Z,32.78
2023-04-05T01:55:13.829Z,28.52
2023-04-05T01:57:41.953Z,28.83
2023-04-05T02:00:12.172Z,29.48
2023-04-05T02:02:40.513Z,28.27
2023-04-05T02:05:11.060Z,27.65
2023-04-05T02:07:39.208Z,31.65
2023-04-05T02:10:09.016Z,25.75
2023-04-05T02:12:37.251Z,30.02
2023-04-05T02:15:06.715Z,30.83
2023-04-05T02:17:39.375Z,28.58
2023-04-05T02:20:12.484Z,30.17
2023-04-05T02:22:41.023Z,30.35
2023-04-05T02:25:10.618Z,27.65
2023-04-05T02:27:38.769Z,27.80
2023-04-05T02:30:08.616Z,30.92
2023-04-05T02:32:36.823Z,32.80
2023-04-05T02:35:05.918Z,25.98
2023-04-05T02:37:35.507Z,40.90
2023-04-05T02:40:05.297Z,36.38
2023-04-05T02:42:33.399Z,30.77
2023-04-05T02:45:02.072Z,28.05
2023-04-05T02:47:30.305Z,25.45
2023-04-05T02:49:58.696Z,28.75
2023-04-05T02:52:26.902Z,26.15
2023-04-05T02:54:56.659Z,30.08
2023-04-05T02:57:24.776Z,26.73
2023-04-05T02:59:53.335Z,30.52
2023-04-05T03:02:21.816Z,33.53
2023-04-05T03:04:50.599Z,29.30
2023-04-05T03:07:18.756Z,29.92
2023-04-05T03:09:47.483Z,29.48
2023-04-05T03:12:16.935Z,30.63
2023-04-05T03:14:46.066Z,28.33
2023-04-05T03:17:14.273Z,26.75
2023-04-05T03:19:42.718Z,34.55
2023-04-05T03:22:10.968Z,28.15
2023-04-05T03:24:39.370Z,30.48
2023-04-05T03:27:07.584Z,30.88
2023-04-05T03:29:37.315Z,26.23
2023-04-05T03:32:05.774Z,31.67
2023-04-05T03:34:34.146Z,30.65
2023-04-05T03:37:02.246Z,26.25
2023-04-05T03:39:30.851Z,26.30
2023-04-05T03:41:58.955Z,33.22
2023-04-05T03:44:27.337Z,35.63
2023-04-05T03:46:56.893Z,32.47
2023-04-05T03:49:26.247Z,32.45
2023-04-05T03:51:54.361Z,32.65
2023-04-05T03:54:23.000Z,34.63
2023-04-05T03:56:51.357Z,34.10
2023-04-05T03:59:19.810Z,29.35
2023-04-05T04:01:48.194Z,33.47
2023-04-05T04:04:17.958Z,34.97
2023-04-05T04:06:46.053Z,34.30
2023-04-05T04:09:14.467Z,35.95
2023-04-05T04:11:42.558Z,30.25
2023-04-05T04:14:10.924Z,38.35
2023-04-05T04:16:39.087Z,29.67
2023-04-05T04:19:07.469Z,40.53
2023-04-05T04:21:39.554Z,31.98
2023-04-05T04:26:37.733Z,39.53
2023-04-05T04:29:06.825Z,33.15
2023-04-05T04:31:35.029Z,32.80
2023-04-05T04:34:05.502Z,38.40
2023-04-05T04:36:39.148Z,40.58
2023-04-05T04:39:10.178Z,35.05
2023-04-05T04:41:38.320Z,46.08
2023-04-05T04:44:06.836Z,39.72
2023-04-05T04:46:42.714Z,48.00
2023-04-05T04:49:11.303Z,32.97
2023-04-05T04:51:40.030Z,38.17
2023-04-05T04:54:09.798Z,45.53
2023-04-05T04:56:37.949Z,41.78
2023-04-05T04:59:06.354Z,38.47
2023-04-05T05:01:35.283Z,41.65
2023-04-05T05:04:04.854Z,45.10
2023-04-05T05:06:33.712Z,38.90
2023-04-05T05:09:02.348Z,35.45
2023-04-05T05:11:31.898Z,36.40
2023-04-05T05:14:00.489Z,40.95
2023-04-05T05:16:28.688Z,45.65
2023-04-05T05:18:57.082Z,33.67
2023-04-05T05:21:26.646Z,36.78
2023-04-05T05:23:55.347Z,94.63
2023-04-05T05:26:23.532Z,34.08
2023-04-05T05:28:53.262Z,39.70
2023-04-05T05:31:21.406Z,38.95
2023-04-05T05:33:50.579Z,37.33
2023-04-05T05:36:20.023Z,40.17
2023-04-05T05:38:49.072Z,47.42
2023-04-05T05:41:17.617Z,41.10
2023-04-05T05:43:46.199Z,54.67
2023-04-05T05:46:15.906Z,52.13
2023-04-05T05:48:44.314Z,49.63
2023-04-05T05:51:12.545Z,44.13
2023-04-05T05:53:42.003Z,49.80
2023-04-05T05:56:10.133Z,39.65
2023-04-05T05:58:39.870Z,57.45
2023-04-05T06:01:08.782Z,47.13
2023-04-05T06:03:38.793Z,42.38
2023-04-05T06:06:11.174Z,49.15
2023-04-05T06:08:39.700Z,38.25
2023-04-05T06:11:08.120Z,46.00
2023-04-05T06:13:37.991Z,141.90
2023-04-05T06:16:06.734Z,42.42
2023-04-05T06:18:35.397Z,62.80
2023-04-05T06:21:04.988Z,43.97
2023-04-05T06:23:33.854Z,36.97
2023-04-05T06:26:02.311Z,44.00
2023-04-05T06:28:30.853Z,29.42
2023-04-05T06:31:00.261Z,30.80
2023-04-05T06:33:29.139Z,27.50
2023-04-05T06:35:57.364Z,28.80
2023-04-05T06:38:27.241Z,34.60
2023-04-05T06:40:55.703Z,31.60
2023-04-05T06:43:24.180Z,38.03
2023-04-05T06:45:52.381Z,30.30
2023-04-05T06:48:21.371Z,26.00
2023-04-05T06:50:57.447Z,24.08
2023-04-05T06:53:27.932Z,29.83
2023-04-05T06:55:56.755Z,22.33
2023-04-05T06:58:26.436Z,27.15
2023-04-05T07:00:55.273Z,27.73
2023-04-05T07:03:23.770Z,24.42
2023-04-05T07:05:53.305Z,22.63
2023-04-05T07:08:22.408Z,30.00
2023-04-05T07:10:52.558Z,28.30
2023-04-05T07:13:22.542Z,26.40
2023-04-05T07:15:51.288Z,16.77
2023-04-05T07:18:20.496Z,26.27
2023-04-05T07:20:50.026Z,17.30
2023-04-05T07:23:20.014Z,24.73
2023-04-05T07:25:50.930Z,24.13
2023-04-05T07:28:19.422Z,25.27
2023-04-05T07:30:47.768Z,28.73
2023-04-05T07:33:16.549Z,23.33
2023-04-05T07:35:44.849Z,25.85
2023-04-05T07:38:13.628Z,20.25
2023-04-05T07:40:42.111Z,24.50
2023-04-05T07:43:12.481Z,27.50
2023-04-05T07:45:40.747Z,26.05
2023-04-05T07:48:09.316Z,28.85
2023-04-05T07:50:39.794Z,24.48
2023-04-05T07:53:08.774Z,24.77
2023-04-05T07:55:39.474Z,26.92
2023-04-05T07:58:07.864Z,27.02
2023-04-05T08:00:37.854Z,22.58
2023-04-05T08:03:06.533Z,10.15
2023-04-05T08:05:34.754Z,31.45
2023-04-05T08:08:03.696Z,24.05
2023-04-05T08:10:32.217Z,25.63
2023-04-05T08:13:00.635Z,19.02
2023-04-05T08:15:28.863Z,30.10
2023-04-05T08:17:58.812Z,25.30
2023-04-05T08:20:27.004Z,21.00
2023-04-05T08:22:55.565Z,21.13
2023-04-05T08:25:23.785Z,22.60
2023-04-05T08:27:52.180Z,15.85
2023-04-05T08:30:20.414Z,17.45
2023-04-05T08:32:48.876Z,19.33
2023-04-05T08:35:18.559Z,21.70
2023-04-05T08:37:48.473Z,23.98
2023-04-05T08:40:16.759Z,20.67
2023-04-05T08:42:53.475Z,24.27
2023-04-05T08:45:22.425Z,19.80
2023-04-05T08:47:51.163Z,23.23
2023-04-05T08:50:20.834Z,20.42
2023-04-05T08:52:50.723Z,17.98
2023-04-05T08:55:18.959Z,14.90
2023-04-05T08:57:51.436Z,16.42
2023-04-05T09:02:51.067Z,14.35
2023-04-05T09:05:22.038Z,18.58
2023-04-05T09:07:51.246Z,15.85
2023-04-05T09:10:20.826Z,18.40
2023-04-05T09:12:50.788Z,19.42
2023-04-05T09:15:24.245Z,16.88
2023-04-05T09:17:53.710Z,19.95
2023-04-05T09:20:23.599Z,16.73
2023-04-05T09:22:52.038Z,17.77
2023-04-05T09:25:35.542Z,15.18
2023-04-05T09:28:04.298Z,16.00
2023-04-05T09:30:33.311Z,25.23
2023-04-05T09:33:02.258Z,20.17
2023-04-05T09:35:33.471Z,18.50
2023-04-05T09:38:03.831Z,19.10
2023-04-05T09:40:45.789Z,19.40
2023-04-05T09:43:16.299Z,19.20
2023-04-05T09:45:46.038Z,20.60
2023-04-05T09:48:14.435Z,24.85
2023-04-05T09:50:43.960Z,24.25
2023-04-05T09:53:16.673Z,27.40
2023-04-05T09:55:44.953Z,32.90
2023-04-05T09:58:14.298Z,25.27
2023-04-05T10:00:57.907Z,24.27
2023-04-05T10:03:47.836Z,26.63
2023-04-05T10:06:18.011Z,23.02
2023-04-05T10:08:47.839Z,24.15
2023-04-05T10:11:19.770Z,32.00
2023-04-05T10:13:48.561Z,26.17
2023-04-05T10:16:21.512Z,25.35
2023-04-05T10:18:52.406Z,22.42
2023-04-05T10:21:24.249Z,25.48
2023-04-05T10:23:57.128Z,31.30
2023-04-05T10:26:32.391Z,30.17
2023-04-05T10:29:04.455Z,31.27
2023-04-05T10:31:39.954Z,28.33
2023-04-05T10:34:09.941Z,32.22
2023-04-05T10:36:51.193Z,28.23
2023-04-05T10:39:25.657Z,23.15
2023-04-05T10:41:55.526Z,25.65
2023-04-05T10:44:26.689Z,31.88
2023-04-05T10:46:55.809Z,25.55
2023-04-05T10:49:28.830Z,27.30
2023-04-05T10:51:58.879Z,26.40
2023-04-05T10:54:27.261Z,30.02
2023-04-05T10:56:56.525Z,28.05
2023-04-05T10:59:26.383Z,24.10
2023-04-05T11:01:54.878Z,27.63
2023-04-05T11:04:23.561Z,22.67
2023-04-05T11:07:12.260Z,25.70
2023-04-05T11:09:41.749Z,20.35
2023-04-05T11:12:10.148Z,19.65
2023-04-05T11:14:39.265Z,24.48
2023-04-05T11:17:25.496Z,18.02
2023-04-05T11:20:03.819Z,18.10
2023-04-05T11:22:33.534Z,18.40
2023-04-05T11:25:03.326Z,25.20
2023-04-05T11:27:32.635Z,20.10
2023-04-05T11:30:02.703Z,25.95
2023-04-05T11:32:41.614Z,23.27
2023-04-05T11:35:15.084Z,22.42
2023-04-05T11:37:58.728Z,25.20
2023-04-05T11:40:31.269Z,20.52
2023-04-05T11:43:07.734Z,18.80
2023-04-05T11:45:37.472Z,22.88
2023-04-05T11:48:09.890Z,18.70
2023-04-05T11:50:39.754Z,26.83
2023-04-05T11:53:16.314Z,24.13
2023-04-05T11:55:46.376Z,22.48
2023-04-05T11:58:18.577Z,26.83
2023-04-05T12:00:47.877Z,27.85
2023-04-05T12:03:17.086Z,21.80
2023-04-05T12:05:49.857Z,20.48
2023-04-05T12:08:20.397Z,21.65
2023-04-05T12:10:55.991Z,20.33
2023-04-05T12:13:31.453Z,18.45
2023-04-05T12:16:00.747Z,20.40
2023-04-05T12:18:31.049Z,18.92
2023-04-05T12:20:59.786Z,16.67
2023-04-05T12:23:30.381Z,17.27
2023-04-05T12:25:59.181Z,18.40
2023-04-05T12:28:27.456Z,25.52
2023-04-05T12:30:58.248Z,20.10
2023-04-05T12:33:30.267Z,24.45
2023-04-05T12:35:59.166Z,41.78
2023-04-05T12:38:29.491Z,145.38
2023-04-05T12:41:01.868Z,28.33
2023-04-05T12:43:39.793Z,15.93
2023-04-05T12:46:11.521Z,17.08
2023-04-05T12:48:39.802Z,17.65
2023-04-05T12:51:17.329Z,16.23
2023-04-05T12:53:49.953Z,17.27
2023-04-05T12:56:18.422Z,14.60
2023-04-05T12:58:50.492Z,14.82
2023-04-05T13:01:20.401Z,18.70
2023-04-05T13:03:49.818Z,15.82
2023-04-05T13:06:18.559Z,15.20
2023-04-05T13:08:47.202Z,16.30
2023-04-05T13:11:16.948Z,17.02
2023-04-05T13:13:45.246Z,18.90
2023-04-05T13:16:13.853Z,19.83
2023-04-05T13:18:42.057Z,13.80
2023-04-05T13:21:10.457Z,15.35
2023-04-05T13:23:40.000Z,21.88
2023-04-05T13:26:08.968Z,14.45
2023-04-05T13:28:38.724Z,11.57
2023-04-05T13:31:08.331Z,16.15
2023-04-05T13:33:36.817Z,16.05
2023-04-05T13:36:05.723Z,14.10
2023-04-05T13:38:34.011Z,14.25
2023-04-05T13:41:02.494Z,16.08
2023-04-05T13:43:31.204Z,15.98
2023-04-05T13:46:01.314Z,19.10
2023-04-05T13:48:29.652Z,14.60
2023-04-05T13:50:58.143Z,15.00
2023-04-05T13:53:28.462Z,21.35
2023-04-05T13:55:57.170Z,17.05
2023-04-05T13:58:25.549Z,26.48
2023-04-05T14:00:54.320Z,13.48
2023-04-05T14:03:24.178Z,16.83
2023-04-05T14:05:55.269Z,12.57
2023-04-05T14:08:23.991Z,13.38
2023-04-05T14:10:52.519Z,13.40
2023-04-05T14:13:20.852Z,12.85
2023-04-05T14:15:49.506Z,12.55
2023-04-05T14:18:17.783Z,14.80
2023-04-05T14:20:47.707Z,15.85
2023-04-05T14:23:15.919Z,14.35
2023-04-05T14:25:44.675Z,13.38
2023-04-05T14:28:12.942Z,15.75
2023-04-05T14:30:41.795Z,16.02
2023-04-05T14:33:10.495Z,16.85
2023-04-05T14:35:39.124Z,19.48
2023-04-05T14:38:08.776Z,15.10
2023-04-05T14:40:37.214Z,12.20
2023-04-05T14:43:06.197Z,13.85
2023-04-05T14:45:34.714Z,20.25
2023-04-05T14:48:03.025Z,13.07
2023-04-05T14:50:32.581Z,27.27
2023-04-05T14:53:00.878Z,12.07
2023-04-05T14:55:30.954Z,15.50
2023-04-05T14:57:59.116Z,35.63
2023-04-05T15:00:27.864Z,12.68
2023-04-05T15:02:56.337Z,14.18
2023-04-05T15:05:24.859Z,17.38
2023-04-05T15:07:53.151Z,14.10
2023-04-05T15:10:21.590Z,18.85
2023-04-05T15:12:51.292Z,12.90
2023-04-05T15:15:20.103Z,17.27
2023-04-05T15:17:48.474Z,19.67
2023-04-05T15:20:17.133Z,40.15
2023-04-05T15:22:45.539Z,20.42
2023-04-05T15:25:14.193Z,22.80
2023-04-05T15:27:42.382Z,43.13
2023-04-05T15:30:13.497Z,57.42
2023-04-05T15:32:41.873Z,14.15
2023-04-05T15:35:10.898Z,15.77
2023-04-05T15:37:40.848Z,13.13
2023-04-05T15:40:10.462Z,12.70
2023-04-05T15:42:38.660Z,16.58
2023-04-05T15:45:08.355Z,19.60
2023-04-05T15:47:38.137Z,23.00
2023-04-05T15:50:07.225Z,11.25
2023-04-05T15:52:36.391Z,33.75
2023-04-05T15:55:05.340Z,15.52
2023-04-05T15:57:33.700Z,50.50
2023-04-05T16:00:02.139Z,38.28
2023-04-05T16:02:31.363Z,28.17
2023-04-05T16:05:01.585Z,47.30
2023-04-05T16:07:29.876Z,49.63
2023-04-05T16:09:58.785Z,57.05
2023-04-05T16:12:27.255Z,28.98
2023-04-05T16:14:56.170Z,27.13
2023-04-05T16:17:25.443Z,49.22
2023-04-05T16:19:56.432Z,35.25
2023-04-05T16:22:27.043Z,17.10
2023-04-05T16:24:55.571Z,13.73
2023-04-05T16:27:23.759Z,13.82
2023-04-05T16:29:52.306Z,12.77
2023-04-05T16:32:20.791Z,16.42
2023-04-05T16:34:49.548Z,20.63
2023-04-05T16:37:17.981Z,12.60
2023-04-05T16:39:47.766Z,13.00
2023-04-05T16:42:16.139Z,11.90
2023-04-05T16:44:45.063Z,12.90
2023-04-05T16:47:13.381Z,12.48
2023-04-05T16:49:41.878Z,12.60
2023-04-05T16:52:10.379Z,15.77
2023-04-05T16:54:39.079Z,15.43
2023-04-05T16:57:08.648Z,13.18
2023-04-05T16:59:37.492Z,17.17
2023-04-05T17:02:05.920Z,14.90
2023-04-05T17:04:36.015Z,17.10
2023-04-05T17:07:05.802Z,19.30
2023-04-05T17:09:34.421Z,13.77
2023-04-05T17:12:03.586Z,20.38
2023-04-05T17:14:34.048Z,17.13
2023-04-05T17:17:02.400Z,18.25
2023-04-05T17:19:31.520Z,21.08
2023-04-05T17:21:59.914Z,16.23
2023-04-05T17:24:29.249Z,19.25
2023-04-05T17:26:57.846Z,15.65
2023-04-05T17:29:26.410Z,14.23
2023-04-05T17:31:56.883Z,15.35
2023-04-05T17:34:25.435Z,12.05
2023-04-05T17:36:53.900Z,15.70
2023-04-05T17:39:22.601Z,24.45
2023-04-05T17:41:51.350Z,32.63
2023-04-05T17:44:19.936Z,24.80
2023-04-05T17:46:57.341Z,22.17
2023-04-05T17:49:36.428Z,32.25
2023-04-05T17:52:05.080Z,28.77
2023-04-05T17:54:37.063Z,30.10
2023-04-05T17:57:06.142Z,26.30
2023-04-05T17:59:35.974Z,28.27
2023-04-05T18:02:04.529Z,28.02
2023-04-05T18:04:33.428Z,29.70
2023-04-05T18:07:03.300Z,27.00
2023-04-05T18:09:33.114Z,30.30
2023-04-05T18:12:02.369Z,30.63
2023-04-05T18:14:31.347Z,27.08
2023-04-05T18:17:00.292Z,26.52
2023-04-05T18:19:29.225Z,22.30
2023-04-05T18:21:57.593Z,26.27
2023-04-05T18:24:27.718Z,20.02
2023-04-05T18:26:56.215Z,22.42
2023-04-05T18:29:28.377Z,27.05
2023-04-05T18:31:57.889Z,19.10
2023-04-05T18:34:26.937Z,21.15
2023-04-05T18:36:55.305Z,23.17
2023-04-05T18:39:27.344Z,30.83
2023-04-05T18:41:57.615Z,39.83
2023-04-05T18:44:26.634Z,31.95
2023-04-05T18:46:55.052Z,34.65
2023-04-05T18:49:23.766Z,35.85
2023-04-05T18:51:52.217Z,37.45
2023-04-05T18:54:20.900Z,34.28
2023-04-05T18:56:49.146Z,41.67
2023-04-05T18:59:19.866Z,45.55
2023-04-05T19:01:48.163Z,53.92
2023-04-05T19:04:17.246Z,64.25
2023-04-05T19:06:45.582Z,56.22
2023-04-05T19:09:15.945Z,57.45
2023-04-05T19:11:44.139Z,51.25
2023-04-05T19:14:12.869Z,65.05
2023-04-05T19:16:42.513Z,55.83
2023-04-05T19:19:11.266Z,65.28
2023-04-05T19:21:39.779Z,55.28
2023-04-05T19:24:09.721Z,54.13
2023-04-05T19:26:38.025Z,50.25
2023-04-05T19:29:07.179Z,63.08
2023-04-05T19:31:36.868Z,71.28
2023-04-05T19:34:07.778Z,46.90
2023-04-05T19:36:36.792Z,51.10
2023-04-05T19:39:06.418Z,43.38
2023-04-05T19:41:35.013Z,50.42
2023-04-05T19:44:07.460Z,47.65
2023-04-05T19:46:39.930Z,37.50
2023-04-05T19:49:11.671Z,48.22
2023-04-05T19:51:40.019Z,42.05
2023-04-05T19:54:11.866Z,47.55
2023-04-05T19:56:40.573Z,43.95
2023-04-05T19:59:26.942Z,43.92
2023-04-05T20:01:55.321Z,40.30
2023-04-05T20:04:26.137Z,36.83
2023-04-05T20:06:55.976Z,41.80
2023-04-05T20:09:26.165Z,40.40
2023-04-05T20:11:57.941Z,39.47
2023-04-05T20:14:28.893Z,37.53
2023-04-05T20:16:58.241Z,41.33
2023-04-05T20:19:31.030Z,42.92
2023-04-05T20:21:59.884Z,44.85
2023-04-05T20:24:29.246Z,34.28
2023-04-05T20:26:57.766Z,37.53
2023-04-05T20:29:27.731Z,37.70
2023-04-05T20:31:56.566Z,35.72
2023-04-05T20:34:30.910Z,45.65
2023-04-05T20:37:01.878Z,52.13
2023-04-05T20:39:31.005Z,48.08
2023-04-05T20:41:59.359Z,48.92
2023-04-05T20:44:28.290Z,48.50
2023-04-05T20:46:58.100Z,51.70
2023-04-05T20:49:28.041Z,56.65
2023-04-05T20:51:57.963Z,59.15
2023-04-05T20:54:26.701Z,58.13
2023-04-05T20:56:54.955Z,58.90
2023-04-05T20:59:23.483Z,68.82
2023-04-05T21:01:51.771Z,64.75
2023-04-05T21:04:20.646Z,69.80
2023-04-05T21:06:48.908Z,69.38
2023-04-05T21:09:18.753Z,76.63
2023-04-05T21:11:47.115Z,78.03
2023-04-05T21:14:16.198Z,82.13
2023-04-05T21:16:44.462Z,80.10
2023-04-05T21:19:12.889Z,80.53
2023-04-05T21:21:41.128Z,78.07
2023-04-05T21:24:09.557Z,85.05
2023-04-05T21:26:39.091Z,68.13
2023-04-05T21:29:07.876Z,76.28
2023-04-05T21:31:36.446Z,76.68
2023-04-05T21:34:04.954Z,81.93
2023-04-05T21:36:33.398Z,80.93
2023-04-05T21:39:01.855Z,76.55
2023-04-05T21:41:30.083Z,71.32
2023-04-05T21:44:00.456Z,63.90
2023-04-05T21:46:28.717Z,51.85
2023-04-05T21:48:57.375Z,48.70
2023-04-05T21:51:25.807Z,47.95
2023-04-05T21:53:54.227Z,50.15
2023-04-05T21:56:22.427Z,47.42
2023-04-05T21:58:50.898Z,38.08
2023-04-05T22:01:20.754Z,33.40
2023-04-05T22:03:49.357Z,28.25
2023-04-05T22:06:17.493Z,29.65
2023-04-05T22:08:45.995Z,22.98
2023-04-05T22:11:14.551Z,26.25
2023-04-05T22:13:45.001Z,27.35
2023-04-05T22:16:13.284Z,21.63
2023-04-05T22:18:43.172Z,22.30
2023-04-05T22:21:12.221Z,20.25
2023-04-05T22:23:42.726Z,22.58
2023-04-05T22:26:11.187Z,30.70
2023-04-05T22:28:39.710Z,23.90
2023-04-05T22:31:07.927Z,23.17
2023-04-05T22:33:36.365Z,19.40
2023-04-05T22:36:06.840Z,18.58
2023-04-05T22:38:35.349Z,21.42
2023-04-05T22:41:03.759Z,17.63
2023-04-05T22:43:32.193Z,20.42
2023-04-05T22:46:00.420Z,27.05
2023-04-05T22:48:28.923Z,20.33
2023-04-05T22:50:57.138Z,17.52
2023-04-05T22:53:26.953Z,17.67
2023-04-05T22:55:55.384Z,18.80
2023-04-05T22:58:23.910Z,21.30
2023-04-05T23:00:52.107Z,19.48
2023-04-05T23:03:20.850Z,25.80
2023-04-05T23:05:52.008Z,18.95
2023-04-05T23:08:20.505Z,19.30
2023-04-05T23:10:50.340Z,24.23
2023-04-05T23:13:19.200Z,22.65
2023-04-05T23:15:47.435Z,21.40
2023-04-05T23:18:21.797Z,22.83
2023-04-05T23:20:50.096Z,20.55
2023-04-05T23:23:18.661Z,21.23
2023-04-05T23:25:46.868Z,20.17
2023-04-05T23:28:16.655Z,20.30
2023-04-05T23:30:44.959Z,21.95
2023-04-05T23:33:13.911Z,21.77
2023-04-05T23:35:42.253Z,20.52
2023-04-05T23:38:10.806Z,20.23
2023-04-05T23:40:38.982Z,21.60
2023-04-05T23:43:07.456Z,19.02
2023-04-05T23:45:36.996Z,17.33
2023-04-05T23:48:06.014Z,11.68
2023-04-05T23:50:34.250Z,14.38
2023-04-05T23:53:03.300Z,18.35
2023-04-05T23:55:32.801Z,16.77
2023-04-05T23:58:01.427Z,11.27
